Time;durP1;ratioP1;P1;durP2;ratioP2;P2;SDS_P1;SDS_P2;PMS_P1;PMS_P2;Temp;Humidity;BMP_temperature;BMP_pressure;BME280_temperature;BME280_humidity;BME280_pressure;Samples;Min_cycle;Max_cycle;Signal;HPM_P1;HPM_P2
2022/01/06 00:01:50;;;;;;;15.47;7.40;;;3.90;99.90;;;;;;5014412;28;20195;-77
2022/01/06 00:04:15;;;;;;;12.63;6.10;;;3.90;99.90;;;;;;5015797;28;20187;-77
2022/01/06 00:06:42;;;;;;;11.83;5.77;;;3.90;99.90;;;;;;5014286;28;20226;-78
2022/01/06 00:09:10;;;;;;;17.52;6.05;;;3.80;99.90;;;;;;5013911;28;20191;-78
2022/01/06 00:11:36;;;;;;;13.48;5.47;;;3.80;99.90;;;;;;4996903;28;20187;-78
2022/01/06 00:17:35;;;;;;;15.02;6.45;;;3.70;99.90;;;;;;5014004;28;20525;-78
2022/01/06 00:24:51;;;;;;;17.98;7.13;;;3.60;99.90;;;;;;5014501;28;20221;-78
2022/01/06 00:27:17;;;;;;;23.10;6.83;;;3.60;99.90;;;;;;5012703;28;20653;-77
2022/01/06 00:29:42;;;;;;;17.37;5.97;;;3.60;99.90;;;;;;5013872;28;20203;-78
2022/01/06 00:32:09;;;;;;;19.53;7.47;;;3.60;99.90;;;;;;5014117;28;20179;-78
2022/01/06 00:34:35;;;;;;;12.23;5.25;;;3.50;99.90;;;;;;5013837;28;20218;-77
2022/01/06 00:37:02;;;;;;;17.60;7.38;;;3.40;99.90;;;;;;5013836;28;20195;-78
2022/01/06 00:39:28;;;;;;;21.33;5.80;;;3.40;99.90;;;;;;5013493;28;20191;-77
2022/01/06 00:41:56;;;;;;;11.32;5.18;;;3.50;99.90;;;;;;5013859;28;20179;-78
2022/01/06 00:44:23;;;;;;;18.80;6.07;;;3.40;99.90;;;;;;5012371;28;20208;-77
2022/01/06 00:46:49;;;;;;;9.23;4.40;;;3.30;99.90;;;;;;5013789;28;20607;-78
2022/01/06 00:49:16;;;;;;;13.33;4.53;;;3.30;99.90;;;;;;5013321;28;20207;-77
2022/01/06 00:51:43;;;;;;;18.60;4.75;;;3.30;99.90;;;;;;5013757;28;20247;-78
2022/01/06 00:54:08;;;;;;;15.98;3.72;;;3.30;99.90;;;;;;5013762;28;20589;-78
2022/01/06 00:56:34;;;;;;;9.47;3.40;;;3.30;99.90;;;;;;5013554;28;20189;-77
2022/01/06 00:59:00;;;;;;;11.77;3.60;;;3.40;99.90;;;;;;5013227;28;20195;-78
2022/01/06 01:01:25;;;;;;;9.00;3.70;;;3.40;99.90;;;;;;5013596;28;20702;-78
2022/01/06 01:03:51;;;;;;;7.50;3.33;;;3.40;99.90;;;;;;5012521;28;20186;-78
2022/01/06 01:06:16;;;;;;;13.20;3.50;;;3.40;99.90;;;;;;5013580;28;20234;-78
2022/01/06 01:08:42;;;;;;;20.53;4.03;;;3.50;99.90;;;;;;5011556;28;20206;-77
2022/01/06 01:11:08;;;;;;;9.37;3.27;;;3.50;99.90;;;;;;5012186;28;20539;-78
2022/01/06 01:13:42;;;;;;;14.60;2.70;;;3.50;99.90;;;;;;5012168;28;20622;-78
2022/01/06 01:16:20;;;;;;;15.32;4.00;;;3.60;99.90;;;;;;5013415;28;20801;-78
2022/01/06 01:18:46;;;;;;;13.05;4.05;;;3.60;99.90;;;;;;5012875;28;20230;-77
2022/01/06 01:21:12;;;;;;;8.18;3.13;;;3.60;99.90;;;;;;5013236;28;20269;-78
2022/01/06 01:23:38;;;;;;;13.73;3.30;;;3.70;99.90;;;;;;5013543;28;20215;-78
2022/01/06 01:26:03;;;;;;;13.57;3.07;;;3.60;99.90;;;;;;5013371;28;20601;-78
2022/01/06 01:28:33;;;;;;;11.87;2.90;;;3.60;99.90;;;;;;5012891;28;20207;-78
2022/01/06 01:33:44;;;;;;;10.68;3.05;;;3.60;99.90;;;;;;5013108;28;20685;-78
2022/01/06 01:36:11;;;;;;;9.30;3.47;;;3.50;99.90;;;;;;5013056;28;20237;-78
2022/01/06 01:38:38;;;;;;;9.02;3.85;;;3.50;99.90;;;;;;5012638;28;20226;-77
2022/01/06 01:41:08;;;;;;;17.27;3.17;;;3.50;99.90;;;;;;5013208;28;20550;-78
2022/01/06 01:43:34;;;;;;;13.88;3.95;;;3.40;99.90;;;;;;5013299;28;20535;-77
2022/01/06 01:46:09;;;;;;;12.52;2.63;;;3.50;99.90;;;;;;5013247;28;20180;-78
2022/01/06 01:48:38;;;;;;;8.02;2.95;;;3.40;99.90;;;;;;5012607;28;20193;-78
2022/01/06 01:51:03;;;;;;;18.42;3.30;;;3.30;99.90;;;;;;5013007;28;20593;-78
2022/01/06 01:53:29;;;;;;;10.87;3.50;;;3.40;99.90;;;;;;5012846;28;20216;-77
2022/01/06 01:55:55;;;;;;;9.23;3.00;;;3.30;99.90;;;;;;5013015;28;20187;-77
2022/01/06 01:58:21;;;;;;;9.87;2.23;;;3.30;99.90;;;;;;5012539;28;20435;-77
2022/01/06 02:00:47;;;;;;;24.45;3.25;;;3.30;99.90;;;;;;5012846;28;20527;-77
2022/01/06 02:03:12;;;;;;;16.03;3.97;;;3.30;99.90;;;;;;5012777;28;20190;-78
2022/01/06 02:05:38;;;;;;;8.80;2.70;;;3.30;99.90;;;;;;5012915;28;20184;-78
2022/01/06 02:08:05;;;;;;;16.30;3.13;;;3.30;99.90;;;;;;5012581;28;20199;-77
2022/01/06 02:10:32;;;;;;;18.85;2.95;;;3.20;99.90;;;;;;5012754;28;20565;-78
2022/01/06 02:13:00;;;;;;;10.63;3.00;;;3.30;99.90;;;;;;5012661;28;20236;-77
2022/01/06 02:15:27;;;;;;;13.48;3.65;;;3.20;99.90;;;;;;5014808;28;20648;-77
2022/01/06 02:17:53;;;;;;;10.90;2.30;;;3.10;99.90;;;;;;5015936;28;20179;-77
2022/01/06 02:20:21;;;;;;;18.50;3.17;;;3.00;99.90;;;;;;5016268;28;20186;-78
2022/01/06 02:22:47;;;;;;;20.23;4.28;;;2.90;99.90;;;;;;5016278;28;20184;-77
2022/01/06 02:25:19;;;;;;;9.63;2.95;;;3.00;99.90;;;;;;5016136;28;20188;-77
2022/01/06 02:27:48;;;;;;;17.25;3.10;;;2.90;99.90;;;;;;5015867;28;20185;-78
2022/01/06 02:30:14;;;;;;;10.23;3.47;;;2.90;99.90;;;;;;5016158;28;20220;-77
2022/01/06 02:32:40;;;;;;;15.23;2.72;;;2.90;99.90;;;;;;5016369;28;20186;-77
2022/01/06 02:35:12;;;;;;;10.33;2.90;;;2.90;99.90;;;;;;5016357;28;20729;-78
2022/01/06 02:37:38;;;;;;;8.38;3.10;;;2.90;99.90;;;;;;5015498;28;20437;-79
2022/01/06 02:40:13;;;;;;;17.42;3.17;;;3.00;99.90;;;;;;5016126;28;20272;-77
2022/01/06 02:42:40;;;;;;;13.02;2.90;;;2.90;99.90;;;;;;5016088;28;20186;-77
2022/01/06 02:45:06;;;;;;;18.80;3.35;;;3.00;99.90;;;;;;5015908;28;20206;-78
2022/01/06 02:47:32;;;;;;;16.30;2.70;;;3.10;99.90;;;;;;5014157;28;20186;-77
2022/01/06 02:49:58;;;;;;;13.40;2.63;;;3.00;99.90;;;;;;5015696;28;20448;-78
2022/01/06 02:52:23;;;;;;;14.80;2.90;;;3.00;99.90;;;;;;5015773;28;20206;-78
2022/01/06 02:54:49;;;;;;;18.27;3.70;;;2.90;99.90;;;;;;5014693;28;20190;-77
2022/01/06 02:57:15;;;;;;;12.93;3.63;;;2.90;99.90;;;;;;5015813;28;20259;-77
2022/01/06 02:59:40;;;;;;;13.67;3.10;;;2.80;99.90;;;;;;5015244;28;20682;-77
2022/01/06 03:02:06;;;;;;;12.63;2.77;;;2.80;99.90;;;;;;5015594;28;20203;-77
2022/01/06 03:04:32;;;;;;;15.30;3.40;;;2.80;99.90;;;;;;5015529;28;20675;-77
2022/01/06 03:06:57;;;;;;;13.90;3.80;;;2.80;99.90;;;;;;5015512;28;20185;-77
2022/01/06 03:09:35;;;;;;;9.63;2.80;;;2.70;99.90;;;;;;5014942;28;20199;-78
2022/01/06 03:12:01;;;;;;;7.20;2.30;;;2.70;99.90;;;;;;5015238;28;20172;-77
2022/01/06 03:14:26;;;;;;;10.95;3.17;;;2.70;99.90;;;;;;5014078;28;20217;-77
2022/01/06 03:16:52;;;;;;;15.53;3.83;;;2.60;99.90;;;;;;5015193;28;20178;-78
2022/01/06 03:19:18;;;;;;;17.53;3.57;;;2.80;99.90;;;;;;5014852;28;20201;-77
2022/01/06 03:21:43;;;;;;;16.33;3.47;;;2.70;99.90;;;;;;5013705;28;20270;-78
2022/01/06 03:24:09;;;;;;;14.43;3.33;;;2.60;99.90;;;;;;5015123;28;20194;-77
2022/01/06 03:26:34;;;;;;;15.43;3.87;;;2.70;99.90;;;;;;5014343;28;20639;-78
2022/01/06 03:29:00;;;;;;;21.37;3.33;;;2.70;99.90;;;;;;5014843;28;20694;-77
2022/01/06 03:31:25;;;;;;;11.10;3.70;;;2.80;99.90;;;;;;5014005;28;20206;-77
2022/01/06 03:33:51;;;;;;;30.60;3.60;;;2.80;99.90;;;;;;5013715;28;20209;-77
2022/01/06 03:36:17;;;;;;;29.57;3.90;;;2.70;99.90;;;;;;5014874;28;20172;-77
2022/01/06 03:38:42;;;;;;;8.80;2.30;;;2.80;99.90;;;;;;5014473;28;20296;-78
2022/01/06 03:41:08;;;;;;;14.40;3.27;;;2.70;99.90;;;;;;5014923;28;20182;-77
2022/01/06 03:43:34;;;;;;;6.93;3.17;;;2.70;99.90;;;;;;5014917;28;20191;-77
2022/01/06 03:45:59;;;;;;;17.80;2.90;;;2.70;99.90;;;;;;5015045;28;20611;-79
2022/01/06 03:48:25;;;;;;;8.57;2.67;;;2.70;99.90;;;;;;5014509;28;20206;-78
2022/01/06 03:50:50;;;;;;;10.43;2.90;;;2.70;99.90;;;;;;5014869;28;20522;-77
2022/01/06 03:53:16;;;;;;;8.70;2.57;;;2.60;99.90;;;;;;5013456;28;20211;-77
2022/01/06 03:55:41;;;;;;;9.90;3.27;;;2.70;99.90;;;;;;5014639;28;20173;-79
2022/01/06 03:58:10;;;;;;;6.30;3.23;;;2.70;99.90;;;;;;5014063;28;20256;-77
2022/01/06 04:00:35;;;;;;;10.48;3.17;;;2.60;99.90;;;;;;5014600;28;20769;-78
2022/01/06 04:03:01;;;;;;;13.07;3.40;;;2.50;99.90;;;;;;5014535;28;20285;-77
2022/01/06 04:05:27;;;;;;;13.53;3.37;;;2.50;99.90;;;;;;5014436;28;20983;-77
2022/01/06 04:07:52;;;;;;;14.40;3.20;;;2.50;99.90;;;;;;5013856;28;20265;-77
2022/01/06 04:10:18;;;;;;;11.63;5.30;;;2.50;99.90;;;;;;5014224;28;20722;-77
2022/01/06 04:12:44;;;;;;;17.23;3.20;;;2.40;99.90;;;;;;5012989;28;20556;-78
2022/01/06 04:15:12;;;;;;;15.43;2.93;;;2.40;99.90;;;;;;5014241;28;20230;-77
2022/01/06 04:17:39;;;;;;;18.88;3.65;;;2.30;99.90;;;;;;5012542;28;20785;-78
2022/01/06 04:20:07;;;;;;;10.75;3.35;;;2.40;99.90;;;;;;5013930;28;20172;-78
2022/01/06 04:22:33;;;;;;;12.10;3.30;;;2.30;99.90;;;;;;5014030;28;20324;-78
2022/01/06 04:24:58;;;;;;;12.75;3.58;;;2.30;99.90;;;;;;5013974;28;20264;-77
2022/01/06 04:27:24;;;;;;;17.60;3.40;;;2.30;99.90;;;;;;5014014;28;20182;-77
2022/01/06 04:29:49;;;;;;;16.73;3.17;;;2.40;99.90;;;;;;5013914;28;20204;-77
2022/01/06 04:32:15;;;;;;;15.63;4.27;;;2.30;99.90;;;;;;5013780;28;20185;-78
2022/01/06 04:34:41;;;;;;;17.93;4.97;;;2.20;99.90;;;;;;5014062;28;20601;-78
2022/01/06 04:37:06;;;;;;;15.67;5.33;;;2.30;99.90;;;;;;5013628;28;20201;-78
2022/01/06 04:39:32;;;;;;;9.03;2.83;;;2.20;99.90;;;;;;5013611;28;20197;-78
2022/01/06 04:41:57;;;;;;;17.23;3.83;;;2.10;99.90;;;;;;5013972;28;20231;-77
2022/01/06 04:44:23;;;;;;;9.30;2.67;;;2.00;99.90;;;;;;5013639;28;20184;-78
2022/01/06 04:46:48;;;;;;;11.33;3.17;;;2.00;99.90;;;;;;5013835;28;20272;-78
2022/01/06 04:49:14;;;;;;;13.07;2.63;;;1.90;99.90;;;;;;5013272;28;20209;-77
2022/01/06 04:51:40;;;;;;;10.57;3.23;;;1.80;99.90;;;;;;5013722;28;20180;-77
2022/01/06 04:54:05;;;;;;;11.60;3.03;;;1.80;99.90;;;;;;5013682;28;20571;-78
2022/01/06 04:56:36;;;;;;;18.30;3.40;;;1.70;99.90;;;;;;5013495;28;20586;-77
2022/01/06 04:59:03;;;;;;;10.95;2.72;;;1.60;99.90;;;;;;5013710;28;20204;-78
2022/01/06 05:01:29;;;;;;;17.38;2.90;;;1.50;99.90;;;;;;5013572;28;20290;-78
2022/01/06 05:03:54;;;;;;;12.90;2.93;;;1.50;99.90;;;;;;5012402;28;20653;-78
2022/01/06 05:06:20;;;;;;;8.60;2.30;;;1.40;99.90;;;;;;5013592;28;20273;-78
2022/01/06 05:08:45;;;;;;;10.20;2.73;;;1.50;99.90;;;;;;5012998;28;20548;-78
2022/01/06 05:11:11;;;;;;;10.27;2.90;;;1.50;99.90;;;;;;5012301;28;20338;-78
2022/01/06 05:13:37;;;;;;;10.53;2.80;;;1.50;99.90;;;;;;5013237;28;20208;-78
2022/01/06 05:16:03;;;;;;;14.03;3.87;;;1.50;99.90;;;;;;5012108;28;20182;-78
2022/01/06 05:18:29;;;;;;;5.63;2.30;;;1.50;99.90;;;;;;5011597;28;20201;-78
2022/01/06 05:20:54;;;;;;;15.00;3.80;;;1.50;99.90;;;;;;5013235;28;20191;-78
2022/01/06 05:23:20;;;;;;;11.73;3.17;;;1.50;99.90;;;;;;5013319;28;20185;-78
2022/01/06 05:25:46;;;;;;;15.40;3.53;;;1.50;99.90;;;;;;5011935;28;20649;-78
2022/01/06 05:28:12;;;;;;;15.43;3.53;;;1.60;99.90;;;;;;5012881;28;20210;-78
2022/01/06 05:30:38;;;;;;;14.60;2.93;;;1.50;99.90;;;;;;5013389;28;20185;-78
2022/01/06 05:33:03;;;;;;;8.80;3.33;;;1.60;99.90;;;;;;5013169;28;20656;-78
2022/01/06 05:35:29;;;;;;;16.60;3.83;;;1.60;99.90;;;;;;5012211;28;20177;-78
2022/01/06 05:37:54;;;;;;;7.70;2.90;;;1.60;99.90;;;;;;5012799;28;20192;-78
2022/01/06 05:40:20;;;;;;;16.67;3.83;;;1.60;99.90;;;;;;5012009;28;20189;-78
2022/01/06 05:42:48;;;;;;;10.33;3.10;;;1.60;99.90;;;;;;5013070;28;20183;-78
2022/01/06 05:45:15;;;;;;;6.97;2.78;;;1.70;99.90;;;;;;5013178;28;20294;-78
2022/01/06 05:47:41;;;;;;;14.80;3.40;;;1.70;99.90;;;;;;5012694;28;20184;-78
2022/01/06 05:50:08;;;;;;;8.70;3.17;;;1.80;99.90;;;;;;5014964;28;20235;-77
2022/01/06 05:52:35;;;;;;;13.70;3.50;;;1.80;99.90;;;;;;5016970;28;20257;-78
2022/01/06 05:55:01;;;;;;;14.85;3.50;;;1.80;99.90;;;;;;5016759;28;20262;-78
2022/01/06 05:57:26;;;;;;;18.52;4.88;;;1.80;99.90;;;;;;5016626;28;20177;-79
2022/01/06 05:59:52;;;;;;;16.77;4.17;;;1.80;99.90;;;;;;5016718;28;20608;-78
2022/01/06 06:02:18;;;;;;;22.57;4.87;;;1.80;99.90;;;;;;5016761;28;20205;-78
2022/01/06 06:04:43;;;;;;;21.10;3.80;;;1.90;99.90;;;;;;5016700;28;20190;-78
2022/01/06 06:07:09;;;;;;;11.27;3.73;;;1.90;99.90;;;;;;5016616;28;20189;-78
2022/01/06 06:09:35;;;;;;;13.70;3.70;;;1.90;99.90;;;;;;5016233;28;20203;-78
2022/01/06 06:12:00;;;;;;;15.93;4.50;;;1.90;99.90;;;;;;5016915;28;20183;-78
2022/01/06 06:14:26;;;;;;;18.40;3.83;;;1.80;99.90;;;;;;5016525;28;20878;-78
2022/01/06 06:16:51;;;;;;;12.80;3.60;;;1.70;99.90;;;;;;5016530;28;20183;-78
2022/01/06 06:19:17;;;;;;;13.50;3.70;;;1.60;99.90;;;;;;5015865;28;20560;-78
2022/01/06 06:21:42;;;;;;;18.37;4.20;;;1.60;99.90;;;;;;5016391;28;20267;-78
2022/01/06 06:24:08;;;;;;;9.83;3.73;;;1.50;99.90;;;;;;5016356;28;20216;-78
2022/01/06 06:26:34;;;;;;;14.07;3.72;;;1.50;99.90;;;;;;5016290;28;20236;-78
2022/01/06 06:29:00;;;;;;;15.80;5.03;;;1.30;99.90;;;;;;5015794;28;20206;-78
2022/01/06 06:31:25;;;;;;;17.80;3.77;;;1.30;99.90;;;;;;5014881;28;20185;-78
2022/01/06 06:33:51;;;;;;;14.50;4.27;;;1.30;99.90;;;;;;5016148;28;20212;-78
2022/01/06 06:36:17;;;;;;;6.57;3.03;;;1.20;99.90;;;;;;5016085;28;20182;-78
2022/01/06 06:38:43;;;;;;;13.30;3.15;;;1.20;99.90;;;;;;5015780;28;20211;-78
2022/01/06 06:41:08;;;;;;;12.70;4.30;;;1.20;99.90;;;;;;4998767;28;20177;-78
2022/01/06 06:43:34;;;;;;;24.90;4.27;;;1.10;99.90;;;;;;5015086;28;20231;-78
2022/01/06 06:45:59;;;;;;;12.97;3.87;;;1.10;99.90;;;;;;5014863;28;20669;-78
2022/01/06 06:48:25;;;;;;;15.77;5.40;;;1.10;99.90;;;;;;5015553;28;20202;-77
2022/01/06 06:50:51;;;;;;;19.23;6.17;;;1.30;99.90;;;;;;5016039;28;20548;-78
2022/01/06 06:53:17;;;;;;;17.57;4.50;;;1.50;99.90;;;;;;5015768;28;20471;-77
2022/01/06 06:55:43;;;;;;;17.97;5.47;;;1.40;99.90;;;;;;5015773;28;20430;-77
2022/01/06 06:58:08;;;;;;;27.80;6.30;;;1.50;99.90;;;;;;5015526;28;20662;-77
2022/01/06 07:00:34;;;;;;;14.03;7.53;;;1.50;99.90;;;;;;5015599;28;20428;-78
2022/01/06 07:03:00;;;;;;;13.60;4.87;;;1.50;99.90;;;;;;5015643;28;20187;-78
2022/01/06 07:05:26;;;;;;;20.97;6.20;;;1.50;99.90;;;;;;5015583;28;20178;-78
2022/01/06 07:07:52;;;;;;;27.52;6.80;;;1.50;99.90;;;;;;5015180;28;20421;-77
2022/01/06 07:10:17;;;;;;;17.13;8.17;;;1.60;99.90;;;;;;5015677;28;20647;-77
2022/01/06 07:12:44;;;;;;;18.70;7.37;;;1.50;99.90;;;;;;5015468;28;20181;-77
2022/01/06 07:15:12;;;;;;;22.58;6.80;;;1.60;99.90;;;;;;5015461;28;20646;-77
2022/01/06 07:17:38;;;;;;;19.80;7.45;;;1.80;99.90;;;;;;5014823;28;20198;-79
2022/01/06 07:20:05;;;;;;;17.13;7.47;;;1.80;99.90;;;;;;5014037;28;20238;-77
2022/01/06 07:22:30;;;;;;;18.45;7.80;;;1.80;99.90;;;;;;5015237;28;20445;-78
2022/01/06 07:24:56;;;;;;;23.80;6.90;;;1.80;99.90;;;;;;5015327;28;20204;-78
2022/01/06 07:27:22;;;;;;;24.03;7.27;;;1.80;99.90;;;;;;5013858;28;20188;-78
2022/01/06 07:29:48;;;;;;;16.60;6.40;;;1.80;99.90;;;;;;5014694;28;21032;-79
2022/01/06 07:32:13;;;;;;;17.97;8.30;;;1.70;99.90;;;;;;5015276;28;20799;-78
2022/01/06 07:34:39;;;;;;;16.63;7.97;;;1.80;99.90;;;;;;5015195;28;20237;-77
2022/01/06 07:37:04;;;;;;;24.43;7.80;;;1.70;99.90;;;;;;5014997;28;20235;-78
2022/01/06 07:39:30;;;;;;;24.03;8.10;;;1.80;99.90;;;;;;5014418;28;20201;-79
2022/01/06 07:41:56;;;;;;;23.17;7.23;;;1.80;99.90;;;;;;5014639;28;20188;-77
2022/01/06 07:44:22;;;;;;;21.02;7.55;;;1.80;99.90;;;;;;5014918;28;20433;-78
2022/01/06 07:46:48;;;;;;;24.10;7.80;;;1.90;99.90;;;;;;5014861;28;20642;-77
2022/01/06 07:49:14;;;;;;;19.30;7.70;;;1.80;99.90;;;;;;5014367;28;20203;-78
2022/01/06 07:51:40;;;;;;;27.30;6.78;;;1.80;99.90;;;;;;5014552;28;20182;-78
2022/01/06 07:54:06;;;;;;;34.00;12.70;;;1.80;99.90;;;;;;5013553;28;20210;-78
2022/01/06 07:56:32;;;;;;;33.43;14.80;;;1.90;99.90;;;;;;5014778;28;20185;-78
2022/01/06 07:58:58;;;;;;;24.73;9.00;;;1.80;99.90;;;;;;5012961;28;20438;-77
2022/01/06 08:01:24;;;;;;;26.00;8.70;;;1.80;99.90;;;;;;5014699;28;20517;-78
2022/01/06 08:03:50;;;;;;;24.53;8.77;;;1.80;99.90;;;;;;5013072;28;20186;-78
2022/01/06 08:06:16;;;;;;;19.27;8.15;;;1.80;99.90;;;;;;5014031;28;20425;-78
2022/01/06 08:08:42;;;;;;;22.07;9.60;;;1.80;99.90;;;;;;5013950;28;20671;-78
2022/01/06 08:11:08;;;;;;;15.23;8.00;;;1.80;99.90;;;;;;5014394;28;20183;-77
2022/01/06 08:13:34;;;;;;;20.60;8.37;;;1.80;99.90;;;;;;5013732;28;20205;-78
2022/01/06 08:16:00;;;;;;;22.63;8.27;;;1.80;99.90;;;;;;5014151;28;20498;-78
2022/01/06 08:18:26;;;;;;;19.50;7.10;;;1.90;99.90;;;;;;5014059;28;20575;-77
2022/01/06 08:20:52;;;;;;;21.50;7.80;;;1.90;99.90;;;;;;5014194;28;20182;-78
2022/01/06 08:23:17;;;;;;;23.03;7.53;;;1.90;99.90;;;;;;5014214;28;20782;-78
2022/01/06 08:25:43;;;;;;;26.30;8.13;;;1.80;99.90;;;;;;5012857;28;20197;-77
2022/01/06 08:28:09;;;;;;;21.47;8.20;;;1.80;99.90;;;;;;5013535;28;20205;-77
2022/01/06 08:30:34;;;;;;;17.37;8.53;;;1.90;99.90;;;;;;5013990;28;20186;-77
2022/01/06 08:33:01;;;;;;;22.07;7.70;;;2.00;99.90;;;;;;5014130;28;20482;-78
2022/01/06 08:35:27;;;;;;;19.48;7.80;;;2.00;99.90;;;;;;5014044;28;20174;-78
2022/01/06 08:37:53;;;;;;;27.35;8.57;;;2.10;99.90;;;;;;5013799;28;20279;-79
2022/01/06 08:40:19;;;;;;;21.37;8.17;;;2.00;99.90;;;;;;5015998;28;20646;-78
2022/01/06 08:42:48;;;;;;;16.33;8.77;;;2.00;99.90;;;;;;5013962;28;20277;-79
2022/01/06 08:45:16;;;;;;;19.55;8.45;;;2.00;99.90;;;;;;5013781;28;20259;-78
2022/01/06 08:47:42;;;;;;;18.60;7.50;;;2.00;99.90;;;;;;5013338;28;20171;-78
2022/01/06 08:50:08;;;;;;;18.27;7.53;;;2.00;99.90;;;;;;5013578;28;20261;-79
2022/01/06 08:52:35;;;;;;;26.58;8.00;;;2.00;99.90;;;;;;5012415;28;20177;-78
2022/01/06 08:55:02;;;;;;;15.82;8.32;;;1.90;99.90;;;;;;5013553;28;20187;-77
2022/01/06 08:57:27;;;;;;;23.00;7.13;;;2.00;99.90;;;;;;5013544;28;20224;-78
2022/01/06 08:59:53;;;;;;;17.10;8.00;;;2.00;99.90;;;;;;5013407;28;20198;-77
2022/01/06 09:02:18;;;;;;;23.03;8.10;;;2.10;99.90;;;;;;5012243;28;20187;-78
2022/01/06 09:04:44;;;;;;;22.57;8.67;;;2.20;99.90;;;;;;5012186;28;20235;-77
2022/01/06 09:07:10;;;;;;;27.00;10.47;;;2.20;99.90;;;;;;5013564;28;20674;-77
2022/01/06 09:09:39;;;;;;;21.13;9.50;;;2.20;99.90;;;;;;5013080;28;20199;-78
2022/01/06 09:12:11;;;;;;;31.75;10.05;;;2.30;99.90;;;;;;5013459;28;20167;-78
2022/01/06 09:14:37;;;;;;;21.95;9.05;;;2.40;99.90;;;;;;5013288;28;20579;-77
2022/01/06 09:17:03;;;;;;;23.73;9.27;;;2.50;99.90;;;;;;5013322;28;20174;-78
2022/01/06 09:19:28;;;;;;;15.68;8.63;;;2.50;99.90;;;;;;5012934;28;20199;-78
2022/01/06 09:21:54;;;;;;;21.20;8.67;;;2.50;99.90;;;;;;5013404;28;20667;-78
2022/01/06 09:24:19;;;;;;;24.50;9.63;;;2.50;99.90;;;;;;5013849;28;20177;-78
2022/01/06 09:26:45;;;;;;;34.10;10.10;;;2.60;99.90;;;;;;5017411;28;20217;-78
2022/01/06 09:29:13;;;;;;;30.83;10.73;;;2.60;99.90;;;;;;5015755;28;20199;-78
2022/01/06 09:31:41;;;;;;;26.15;10.45;;;2.60;99.90;;;;;;5015759;28;20210;-79
2022/01/06 09:34:08;;;;;;;22.25;8.60;;;2.70;99.90;;;;;;5017239;28;20605;-79
2022/01/06 09:36:34;;;;;;;37.42;12.73;;;2.70;99.90;;;;;;5017251;28;20545;-77
2022/01/06 09:39:00;;;;;;;21.50;9.70;;;2.70;99.90;;;;;;5016859;28;20238;-78
2022/01/06 09:41:27;;;;;;;19.70;10.10;;;2.80;99.90;;;;;;5017274;28;20186;-78
2022/01/06 09:43:57;;;;;;;26.83;10.88;;;2.70;99.90;;;;;;5015726;28;20187;-78
2022/01/06 09:46:23;;;;;;;28.10;11.82;;;2.90;99.90;;;;;;5017140;28;20168;-77
2022/01/06 09:48:50;;;;;;;19.88;8.55;;;2.90;99.90;;;;;;5016588;28;20583;-78
2022/01/06 09:51:18;;;;;;;29.88;12.18;;;2.90;99.90;;;;;;5017224;28;20183;-78
2022/01/06 09:53:44;;;;;;;40.65;10.95;;;2.80;99.90;;;;;;5016920;28;20290;-78
2022/01/06 09:56:10;;;;;;;25.70;11.43;;;2.90;99.90;;;;;;5016828;28;20712;-78
2022/01/06 09:58:36;;;;;;;19.00;10.37;;;2.90;99.90;;;;;;5015288;28;20194;-78
2022/01/06 10:01:02;;;;;;;23.83;11.07;;;3.00;99.90;;;;;;5016944;28;20556;-78
2022/01/06 10:03:46;;;;;;;26.05;9.88;;;3.00;99.90;;;;;;5017071;28;20886;-78
2022/01/06 10:06:24;;;;;;;24.92;10.75;;;3.20;99.90;;;;;;5016907;28;20225;-78
2022/01/06 10:08:54;;;;;;;24.42;9.77;;;3.20;99.90;;;;;;5016324;28;20202;-79
2022/01/06 10:11:25;;;;;;;22.83;10.07;;;3.30;99.90;;;;;;5016654;28;20518;-78
2022/01/06 10:14:10;;;;;;;22.15;8.82;;;3.40;99.90;;;;;;5016439;28;20234;-78
2022/01/06 10:16:39;;;;;;;25.50;8.23;;;3.50;99.90;;;;;;5016443;28;20172;-78
2022/01/06 10:19:10;;;;;;;28.50;12.13;;;3.60;99.90;;;;;;5015846;28;20195;-78
2022/01/06 10:21:42;;;;;;;24.77;9.02;;;3.90;99.90;;;;;;5016253;28;20255;-79
2022/01/06 10:24:14;;;;;;;19.73;9.57;;;4.00;99.90;;;;;;5016454;28;20179;-77
2022/01/06 10:27:02;;;;;;;19.30;8.52;;;4.40;99.90;;;;;;5016207;28;20175;-78
2022/01/06 10:29:29;;;;;;;19.30;8.85;;;4.60;99.90;;;;;;5015868;28;20534;-78
2022/01/06 10:32:04;;;;;;;11.13;5.80;;;4.80;99.90;;;;;;5014945;28;20392;-77
2022/01/06 10:34:31;;;;;;;19.08;7.70;;;5.00;99.90;;;;;;5016096;28;20256;-77
2022/01/06 10:36:56;;;;;;;17.73;7.43;;;5.00;99.90;;;;;;5015485;28;20601;-76
2022/01/06 10:39:22;;;;;;;17.27;5.83;;;4.90;99.90;;;;;;5015711;28;20196;-78
2022/01/06 10:41:47;;;;;;;16.50;6.93;;;4.80;99.90;;;;;;5014633;28;20697;-77
2022/01/06 10:44:13;;;;;;;16.07;7.30;;;4.70;99.90;;;;;;5014774;28;20191;-76
2022/01/06 10:46:42;;;;;;;16.73;7.17;;;4.60;99.90;;;;;;5015985;28;20182;-76
2022/01/06 10:49:11;;;;;;;15.00;7.43;;;4.50;99.90;;;;;;5014173;28;20542;-78
2022/01/06 10:51:38;;;;;;;18.30;6.80;;;4.50;99.90;;;;;;5015967;28;20172;-76
2022/01/06 10:54:05;;;;;;;20.33;8.25;;;4.30;99.90;;;;;;5016080;28;20203;-75
2022/01/06 10:56:31;;;;;;;17.60;8.45;;;4.40;99.90;;;;;;5015995;28;20175;-76
2022/01/06 10:58:58;;;;;;;21.17;9.17;;;4.40;99.90;;;;;;5015113;28;20604;-77
2022/01/06 11:01:25;;;;;;;27.70;9.00;;;4.50;99.90;;;;;;5015621;28;20218;-75
2022/01/06 11:03:50;;;;;;;24.35;9.02;;;4.60;99.90;;;;;;5016158;28;20187;-76
2022/01/06 11:06:16;;;;;;;14.63;8.13;;;4.60;99.90;;;;;;5015530;28;20663;-76
2022/01/06 11:08:43;;;;;;;28.60;9.50;;;4.40;99.90;;;;;;5015167;28;20215;-76
2022/01/06 11:13:42;;;;;;;25.67;9.75;;;4.60;99.90;;;;;;5015378;28;20209;-75
2022/01/06 11:16:12;;;;;;;22.55;8.80;;;4.70;99.90;;;;;;5015386;28;20258;-76
2022/01/06 11:18:43;;;;;;;20.73;7.57;;;4.90;99.90;;;;;;5015057;28;20245;-76
2022/01/06 11:21:14;;;;;;;16.95;8.10;;;5.20;99.90;;;;;;5013915;28;20196;-76
2022/01/06 11:23:40;;;;;;;15.50;6.90;;;5.30;99.90;;;;;;5015108;28;20535;-76
2022/01/06 11:26:13;;;;;;;17.60;7.10;;;5.60;99.90;;;;;;5015151;28;20183;-76
2022/01/06 11:28:41;;;;;;;17.92;6.93;;;5.70;99.90;;;;;;5014817;28;20608;-76
2022/01/06 11:31:22;;;;;;;16.77;6.40;;;5.70;99.90;;;;;;5015084;28;20178;-76
2022/01/06 11:33:50;;;;;;;22.10;7.47;;;5.70;99.90;;;;;;5014938;28;20690;-75
2022/01/06 11:36:31;;;;;;;16.77;6.78;;;5.90;99.90;;;;;;5015309;28;20172;-76
2022/01/06 11:38:58;;;;;;;14.93;6.80;;;5.50;99.90;;;;;;5014700;28;20196;-75
2022/01/06 11:41:40;;;;;;;15.85;7.45;;;5.40;99.90;;;;;;5014867;28;20212;-76
2022/01/06 11:44:23;;;;;;;17.88;8.80;;;5.50;99.90;;;;;;5013577;28;20179;-76
2022/01/06 11:46:56;;;;;;;20.75;7.55;;;5.60;99.90;;;;;;5014377;28;20627;-76
2022/01/06 11:49:41;;;;;;;24.42;7.88;;;5.70;99.90;;;;;;5014379;28;20652;-76
2022/01/06 11:52:11;;;;;;;14.50;8.10;;;5.90;99.90;;;;;;5014877;28;20553;-76
2022/01/06 11:54:54;;;;;;;13.77;7.68;;;6.00;99.90;;;;;;5014584;28;20215;-76
2022/01/06 11:57:37;;;;;;;24.33;8.48;;;5.90;99.90;;;;;;5014603;28;20607;-76
2022/01/06 12:00:17;;;;;;;16.48;9.10;;;5.60;99.90;;;;;;5014407;28;20175;-75
2022/01/06 12:02:45;;;;;;;16.80;8.98;;;5.70;99.90;;;;;;5014521;28;20563;-76
2022/01/06 12:05:11;;;;;;;16.55;7.45;;;5.70;99.90;;;;;;5013401;28;20185;-76
2022/01/06 12:07:52;;;;;;;15.50;6.55;;;5.90;99.90;;;;;;5014162;28;20230;-76
2022/01/06 12:10:18;;;;;;;10.77;6.97;;;6.00;99.90;;;;;;5013264;28;20659;-75
2022/01/06 12:12:44;;;;;;;16.37;6.77;;;6.20;99.90;;;;;;5014399;28;20175;-75
2022/01/06 12:15:16;;;;;;;16.47;6.20;;;6.50;99.90;;;;;;5013181;28;20446;-76
2022/01/06 12:18:00;;;;;;;19.98;6.90;;;6.60;99.90;;;;;;5014608;28;20415;-77
2022/01/06 12:20:29;;;;;;;15.90;6.45;;;6.80;99.90;;;;;;5014167;28;20553;-75
2022/01/06 12:22:55;;;;;;;18.25;6.53;;;7.00;99.90;;;;;;5014146;28;20172;-75
2022/01/06 12:25:23;;;;;;;19.92;6.13;;;7.00;99.90;;;;;;5014147;28;20172;-76
2022/01/06 12:27:53;;;;;;;12.80;6.13;;;7.20;99.90;;;;;;5013452;28;20187;-76
2022/01/06 12:30:20;;;;;;;13.57;6.07;;;7.30;99.90;;;;;;5013969;28;20187;-75
2022/01/06 12:33:03;;;;;;;24.92;6.75;;;7.10;99.90;;;;;;5012756;28;20642;-76
2022/01/06 12:35:48;;;;;;;15.40;6.15;;;7.10;99.90;;;;;;5013801;28;20262;-76
2022/01/06 12:38:15;;;;;;;12.45;5.47;;;7.10;99.90;;;;;;5013367;28;20747;-75
2022/01/06 12:40:45;;;;;;;11.43;5.47;;;7.10;99.90;;;;;;5013932;28;20177;-75
2022/01/06 12:43:20;;;;;;;12.90;5.65;;;7.10;99.90;;;;;;5013858;28;20181;-75
2022/01/06 12:45:58;;;;;;;20.63;7.03;;;6.60;99.90;;;;;;5013824;28;20261;-77
2022/01/06 12:48:33;;;;;;;19.55;7.35;;;6.80;99.90;;;;;;5013478;28;20199;-76
2022/01/06 12:50:59;;;;;;;16.08;6.97;;;6.50;99.90;;;;;;5013833;28;20179;-75
2022/01/06 12:53:30;;;;;;;12.67;6.50;;;6.50;99.90;;;;;;5013666;28;20214;-76
2022/01/06 12:55:57;;;;;;;11.77;6.88;;;6.70;99.90;;;;;;5013816;28;20889;-76
2022/01/06 12:58:34;;;;;;;19.65;6.53;;;6.70;99.90;;;;;;5011896;28;20192;-75
2022/01/06 13:01:03;;;;;;;15.88;7.38;;;6.60;99.90;;;;;;5013650;28;20170;-76
2022/01/06 13:03:37;;;;;;;10.32;6.07;;;6.60;99.90;;;;;;5013537;28;20479;-77